Jackson Hall, Pennsylvania
Current Conditions -  °F | °C
As of 8:53 PM on Wednesday 26 Nov 2014 (Local Time) from KHGR Reporting Station
Overcast Overcast  
Wind Chill: 28°   Ceiling: 8000
Heat Index: 34°   Visibility: 10mi
Dew Point: 31°   Wind: 7mph
Humidity: 89%   Direction: 310°NW
Pressure: 29.97"   Gusts: NA
Location:  39.9438°N, 77.6827°W
Report Text: KHGR 270153Z 31006KT 10SM SCT019 BKN080 OVC100 01/M01 A2997 RMK AO2 SLP164 T00111006
Loading
Personal Weather Stations






























Interactive Weather Map New forecast layout! Learn more

10-Day Weather Forecast

Advertisements
Track Severe Weather on mobile